Time;durP1;ratioP1;P1;durP2;ratioP2;P2;SDS_P1;SDS_P2;PMS_P1;PMS_P2;Temp;Humidity;BMP_temperature;BMP_pressure;BME280_temperature;BME280_humidity;BME280_pressure;Samples;Min_cycle;Max_cycle;Signal;HPM_P1;HPM_P2
2023/02/26 00:01:31;;;;;;;15.73;8.25;;;;;;;11.52;86.90;98843.47;5034570;28;20243;-64
2023/02/26 00:04:01;;;;;;;18.38;8.50;;;;;;;11.43;87.39;98847.22;5034337;28;20029;-63
2023/02/26 00:06:28;;;;;;;18.10;8.63;;;;;;;11.36;87.21;98841.03;5030707;28;20050;-62
2023/02/26 00:08:54;;;;;;;14.50;8.45;;;;;;;11.32;87.18;98842.44;5034322;28;20080;-62
2023/02/26 00:11:21;;;;;;;16.10;8.70;;;;;;;11.25;87.89;98840.72;5033947;28;20072;-66
2023/02/26 00:13:47;;;;;;;15.15;7.93;;;;;;;11.17;87.98;98831.88;5034805;28;20061;-64
2023/02/26 00:16:17;;;;;;;13.02;8.75;;;;;;;11.20;88.29;98847.41;5034736;28;20335;-65
2023/02/26 00:18:43;;;;;;;19.20;9.32;;;;;;;11.36;88.27;98838.38;5025650;28;20429;-62
2023/02/26 00:21:16;;;;;;;15.77;8.80;;;;;;;11.51;87.18;98831.22;5035052;28;20037;-61
2023/02/26 00:23:41;;;;;;;16.20;8.82;;;;;;;11.75;86.04;98837.13;5033837;28;20264;-60
2023/02/26 00:26:06;;;;;;;16.92;7.80;;;;;;;11.88;84.55;98841.75;5036225;28;20091;-60
2023/02/26 00:28:32;;;;;;;11.98;6.93;;;;;;;11.98;84.01;98850.19;5035505;28;20033;-62
2023/02/26 00:30:58;;;;;;;15.82;8.15;;;;;;;11.88;84.92;98862.97;5032481;28;20041;-63
2023/02/26 00:33:24;;;;;;;17.83;8.23;;;;;;;11.73;85.58;98852.41;5033938;28;20084;-60
2023/02/26 00:35:57;;;;;;;12.70;7.45;;;;;;;11.91;84.11;98846.69;5034434;28;20040;-60
2023/02/26 00:38:23;;;;;;;18.00;8.05;;;;;;;11.92;83.85;98851.78;5034078;28;20107;-65
2023/02/26 00:40:53;;;;;;;23.67;11.60;;;;;;;11.77;84.42;98849.22;5029413;28;20052;-64
2023/02/26 00:43:23;;;;;;;16.60;7.65;;;;;;;11.82;84.40;98838.03;5034693;28;20030;-63
2023/02/26 00:46:47;;;;;;;15.30;7.60;;;;;;;11.58;85.01;98836.59;5035708;28;20038;-65
2023/02/26 00:49:43;;;;;;;18.00;7.88;;;;;;;11.60;86.28;98834.56;5032514;28;20096;-62
2023/02/26 00:52:17;;;;;;;14.98;7.38;;;;;;;11.68;86.05;98830.97;5034725;28;20041;-62
2023/02/26 00:54:43;;;;;;;16.05;7.35;;;;;;;11.80;85.07;98838.22;5032403;28;20052;-62
2023/02/26 00:57:08;;;;;;;17.20;7.55;;;;;;;11.83;84.92;98829.06;5033445;28;20029;-62
2023/02/26 00:59:34;;;;;;;16.08;7.43;;;;;;;11.72;84.99;98829.56;5033834;28;20033;-65
2023/02/26 01:01:59;;;;;;;16.42;7.53;;;;;;;11.68;85.57;98823.81;5034219;28;20055;-64
2023/02/26 01:04:25;;;;;;;13.70;6.93;;;;;;;11.75;85.26;98829.19;5032826;28;20070;-65
2023/02/26 01:06:55;;;;;;;14.68;7.93;;;;;;;11.80;84.95;98826.81;5033391;28;20049;-64
2023/02/26 01:09:30;;;;;;;16.42;7.28;;;;;;;11.70;85.88;98820.97;5033290;28;20025;-62
2023/02/26 01:12:00;;;;;;;12.00;6.60;;;;;;;11.44;86.93;98825.03;5033566;28;20094;-64
2023/02/26 01:14:27;;;;;;;14.93;7.28;;;;;;;11.62;86.28;98819.28;5033362;28;20033;-62
2023/02/26 01:17:15;;;;;;;16.45;8.70;;;;;;;11.38;86.67;98817.00;5032870;28;20075;-65
2023/02/26 01:19:49;;;;;;;15.13;7.40;;;;;;;11.25;88.23;98809.75;5033079;28;20104;-64
2023/02/26 01:22:39;;;;;;;15.93;6.93;;;;;;;11.19;88.76;98810.50;5033707;28;20049;-63
2023/02/26 01:25:11;;;;;;;15.45;7.22;;;;;;;11.40;87.79;98823.75;5032694;28;20057;-66
2023/02/26 01:27:37;;;;;;;21.42;9.25;;;;;;;11.49;87.33;98825.28;5034295;28;20228;-66
2023/02/26 01:30:05;;;;;;;14.98;7.70;;;;;;;11.49;86.92;98816.53;5033384;28;20084;-63
2023/02/26 01:32:41;;;;;;;14.98;8.00;;;;;;;11.65;86.40;98826.84;5032599;28;20060;-62
2023/02/26 01:35:30;;;;;;;16.55;8.13;;;;;;;11.79;85.81;98828.63;5033152;28;20238;-65
2023/02/26 01:38:03;;;;;;;14.52;7.32;;;;;;;11.86;85.22;98830.53;5033248;28;20060;-63
2023/02/26 01:40:43;;;;;;;14.83;7.37;;;;;;;11.88;85.05;98834.63;5032840;28;20037;-62
2023/02/26 01:43:15;;;;;;;13.48;7.07;;;;;;;11.75;85.64;98837.13;5031948;28;20450;-65
2023/02/26 01:46:20;;;;;;;18.27;7.68;;;;;;;11.78;85.21;98840.25;5032246;28;20048;-62
2023/02/26 01:48:52;;;;;;;12.57;7.13;;;;;;;12.00;84.41;98829.59;5036678;28;20287;-65
2023/02/26 01:51:38;;;;;;;12.57;7.30;;;;;;;12.06;83.63;98823.53;5032023;28;20048;-64
2023/02/26 01:54:04;;;;;;;12.88;6.88;;;;;;;11.66;85.55;98833.81;5032032;28;20132;-65
2023/02/26 01:56:29;;;;;;;28.42;10.15;;;;;;;11.91;85.16;98828.94;5033625;28;20037;-62
2023/02/26 01:58:55;;;;;;;17.95;7.18;;;;;;;12.00;84.27;98817.16;5032719;28;20052;-65
2023/02/26 02:01:20;;;;;;;15.73;7.85;;;;;;;11.95;84.62;98832.00;5032344;28;20034;-65
2023/02/26 02:03:46;;;;;;;19.20;8.20;;;;;;;11.92;84.57;98822.59;5031964;28;20041;-65
2023/02/26 02:06:26;;;;;;;14.10;7.03;;;;;;;11.65;85.69;98834.81;5032711;28;20291;-65
2023/02/26 02:08:52;;;;;;;14.23;6.30;;;;;;;11.88;84.61;98820.53;5029188;28;20277;-65
2023/02/26 02:11:17;;;;;;;14.30;7.57;;;;;;;11.70;85.71;98828.94;5031538;28;20397;-66
2023/02/26 02:14:06;;;;;;;15.23;7.22;;;;;;;11.49;85.95;98819.16;5032963;28;20049;-64
2023/02/26 02:16:55;;;;;;;14.07;6.72;;;;;;;11.50;87.18;98820.81;5024555;28;20050;-63
2023/02/26 02:19:26;;;;;;;14.88;7.43;;;;;;;11.60;86.31;98831.91;5029943;28;20045;-62
2023/02/26 02:22:14;;;;;;;16.23;7.72;;;;;;;11.66;86.00;98828.50;5031475;28;20108;-63
2023/02/26 02:25:17;;;;;;;16.13;8.48;;;;;;;11.75;85.30;98832.66;5033895;28;20549;-62
2023/02/26 02:28:16;;;;;;;16.27;7.82;;;;;;;11.82;85.57;98832.75;5030746;28;20065;-65
2023/02/26 02:31:18;;;;;;;17.30;8.13;;;;;;;11.35;87.14;98836.75;5032455;28;20041;-64
2023/02/26 02:33:43;;;;;;;20.00;9.80;;;;;;;11.30;87.36;98835.66;5033664;28;20132;-62
2023/02/26 02:36:35;;;;;;;17.35;9.27;;;;;;;11.55;86.46;98833.50;5033513;28;20119;-65
2023/02/26 02:39:26;;;;;;;18.02;8.80;;;;;;;11.39;87.51;98834.53;5036813;28;20056;-62
2023/02/26 02:42:12;;;;;;;21.45;10.27;;;;;;;11.47;86.34;98839.75;5034041;28;20093;-64
2023/02/26 02:44:41;;;;;;;18.48;11.10;;;;;;;11.60;86.19;98834.56;5035950;28;20053;-64
2023/02/26 02:47:09;;;;;;;19.08;9.63;;;;;;;11.52;85.91;98842.66;5037163;28;20243;-64
2023/02/26 02:49:41;;;;;;;20.40;9.85;;;;;;;11.31;86.01;98847.91;5034719;28;20057;-62
2023/02/26 02:52:16;;;;;;;25.58;9.98;;;;;;;11.31;87.09;98842.63;5035732;28;20033;-64
2023/02/26 02:54:55;;;;;;;16.88;10.00;;;;;;;11.09;87.76;98845.25;5036748;28;20280;-65
2023/02/26 02:57:36;;;;;;;15.68;9.30;;;;;;;11.18;87.75;98845.94;5032551;28;20037;-64
2023/02/26 03:00:09;;;;;;;21.83;11.20;;;;;;;11.46;86.60;98851.34;5034392;28;20156;-64
2023/02/26 03:02:56;;;;;;;16.70;8.20;;;;;;;11.49;85.96;98853.63;5036031;28;20042;-66
2023/02/26 03:05:22;;;;;;;25.35;9.27;;;;;;;11.42;86.46;98845.59;5035615;28;20383;-66
2023/02/26 03:07:57;;;;;;;13.77;7.55;;;;;;;11.48;86.42;98854.63;5031659;28;20940;-62
2023/02/26 03:10:23;;;;;;;19.52;7.45;;;;;;;11.40;87.26;98847.59;5034824;28;20056;-63
2023/02/26 03:12:49;;;;;;;15.45;6.97;;;;;;;11.28;87.21;98845.66;5035681;28;20354;-62
2023/02/26 03:15:40;;;;;;;17.85;7.72;;;;;;;11.23;87.96;98848.03;5036150;28;20038;-64
2023/02/26 03:18:21;;;;;;;14.85;7.10;;;;;;;11.16;88.64;98837.38;5035325;28;20079;-62
2023/02/26 03:21:05;;;;;;;14.80;7.32;;;;;;;11.09;88.61;98833.81;5034752;28;20045;-62
2023/02/26 03:23:35;;;;;;;16.25;6.97;;;;;;;11.00;88.47;98837.59;5035862;28;20041;-64
2023/02/26 03:26:17;;;;;;;11.90;7.13;;;;;;;10.68;91.30;98841.50;5036128;28;20339;-65
2023/02/26 03:29:05;;;;;;;12.65;6.82;;;;;;;10.92;90.02;98830.59;5035964;28;20096;-65
2023/02/26 03:31:40;;;;;;;15.10;7.47;;;;;;;11.10;88.99;98827.53;5033971;28;20045;-62
2023/02/26 03:34:06;;;;;;;13.80;7.57;;;;;;;11.11;88.50;98835.28;5035531;28;20416;-65
2023/02/26 03:36:37;;;;;;;16.85;7.10;;;;;;;11.07;89.50;98830.53;5035515;28;20053;-62
2023/02/26 03:39:06;;;;;;;14.60;7.10;;;;;;;11.11;89.62;98822.03;5035452;28;20045;-63
2023/02/26 03:41:39;;;;;;;11.80;6.20;;;;;;;11.05;89.75;98811.38;5035095;28;20271;-64
2023/02/26 03:44:11;;;;;;;13.63;7.38;;;;;;;10.95;90.11;98819.63;5036070;28;20048;-64
2023/02/26 03:46:44;;;;;;;15.55;7.13;;;;;;;10.99;89.08;98818.25;5035796;28;20234;-65
2023/02/26 03:49:19;;;;;;;13.20;6.40;;;;;;;10.99;89.32;98810.28;5034604;28;20037;-64
2023/02/26 03:51:46;;;;;;;19.83;7.00;;;;;;;11.00;88.73;98811.94;5035694;28;20103;-62
2023/02/26 03:54:21;;;;;;;11.73;6.43;;;;;;;11.06;89.21;98820.97;5036148;28;20033;-63
2023/02/26 03:56:47;;;;;;;15.93;6.95;;;;;;;11.19;88.43;98821.91;5032729;28;20037;-62
2023/02/26 03:59:15;;;;;;;16.55;7.03;;;;;;;11.27;87.93;98820.97;5035275;28;20413;-64
2023/02/26 04:01:50;;;;;;;13.50;6.43;;;;;;;11.36;87.37;98821.66;5034259;28;20303;-66
2023/02/26 04:04:29;;;;;;;11.68;6.40;;;;;;;11.39;86.59;98816.00;5034258;28;20247;-64
2023/02/26 04:06:55;;;;;;;16.55;6.32;;;;;;;11.44;86.43;98814.44;5032794;28;20065;-65
2023/02/26 04:09:21;;;;;;;20.13;6.80;;;;;;;11.48;86.16;98813.03;5034686;28;20033;-64
2023/02/26 04:11:50;;;;;;;12.38;5.63;;;;;;;11.25;87.19;98809.75;5034715;28;20457;-62
2023/02/26 04:14:15;;;;;;;12.70;6.05;;;;;;;10.87;89.83;98799.38;5030072;28;20375;-62
2023/02/26 04:16:42;;;;;;;12.40;6.18;;;;;;;10.83;90.39;98794.63;5033627;28;20060;-65
2023/02/26 04:19:08;;;;;;;10.25;6.57;;;;;;;10.85;90.37;98800.56;5034926;28;20033;-65
2023/02/26 04:21:33;;;;;;;14.68;5.90;;;;;;;11.01;89.29;98797.69;5034671;28;20037;-63
2023/02/26 04:23:59;;;;;;;16.00;6.18;;;;;;;11.22;88.45;98799.53;5033461;28;20381;-64
2023/02/26 04:26:25;;;;;;;16.15;6.18;;;;;;;11.29;87.82;98789.81;5036009;28;20029;-64
2023/02/26 04:28:50;;;;;;;14.32;7.18;;;;;;;11.24;88.57;98797.50;5034120;28;20343;-62
2023/02/26 04:31:15;;;;;;;12.23;6.05;;;;;;;11.40;87.64;98802.53;5034558;28;20045;-64
2023/02/26 04:33:41;;;;;;;14.50;6.20;;;;;;;11.43;87.85;98798.69;5033428;28;20034;-62
2023/02/26 04:36:07;;;;;;;13.00;5.97;;;;;;;11.42;87.78;98800.53;5033677;28;20030;-64
2023/02/26 04:38:32;;;;;;;12.32;6.03;;;;;;;11.37;88.30;98794.97;5032950;28;20263;-66
2023/02/26 04:40:58;;;;;;;13.70;6.25;;;;;;;11.37;88.35;98781.72;5033947;28;20040;-66
2023/02/26 04:43:23;;;;;;;15.32;6.85;;;;;;;11.26;88.70;98779.59;5034612;28;20431;-62
2023/02/26 04:45:49;;;;;;;17.88;6.40;;;;;;;11.12;89.31;98781.28;5033686;28;20041;-62
2023/02/26 04:48:15;;;;;;;16.70;6.60;;;;;;;11.18;89.66;98764.63;5034639;28;20049;-62
2023/02/26 04:50:41;;;;;;;14.70;5.88;;;;;;;11.22;89.66;98777.50;5033728;28;20065;-65
2023/02/26 04:53:06;;;;;;;14.50;6.43;;;;;;;11.31;90.02;98787.78;5034415;28;20060;-62
2023/02/26 04:55:34;;;;;;;13.63;6.35;;;;;;;11.42;89.72;98787.28;5033780;28;20110;-65
2023/02/26 04:57:59;;;;;;;19.55;6.47;;;;;;;11.49;89.86;98785.53;5033240;28;20114;-64
2023/02/26 05:00:25;;;;;;;14.90;5.95;;;;;;;11.51;90.21;98783.50;5032697;28;20056;-64
2023/02/26 05:02:50;;;;;;;13.90;6.35;;;;;;;11.41;91.53;98772.38;5033529;28;20056;-62
2023/02/26 05:05:16;;;;;;;16.10;6.43;;;;;;;11.38;92.17;98779.88;5032658;28;20040;-62
2023/02/26 05:07:41;;;;;;;16.05;6.10;;;;;;;11.19;92.77;98774.22;5033841;28;20045;-64
2023/02/26 05:10:08;;;;;;;14.30;6.57;;;;;;;11.12;94.10;98762.75;5034594;28;20056;-64
2023/02/26 05:12:33;;;;;;;12.15;6.90;;;;;;;11.15;93.61;98772.13;5032980;28;20036;-66
2023/02/26 05:14:59;;;;;;;16.17;8.43;;;;;;;10.94;95.56;98758.88;5033382;28;20045;-66
2023/02/26 05:17:24;;;;;;;12.82;5.80;;;;;;;10.88;96.31;98769.22;5033322;28;20041;-62
2023/02/26 05:19:50;;;;;;;14.30;7.05;;;;;;;10.87;96.24;98764.94;5033678;28;20087;-64
2023/02/26 05:22:16;;;;;;;19.92;6.38;;;;;;;11.10;95.36;98764.75;5032029;28;20029;-64
2023/02/26 05:24:42;;;;;;;15.38;6.07;;;;;;;11.32;94.83;98773.53;5033388;28;20025;-64
2023/02/26 05:27:08;;;;;;;13.90;6.18;;;;;;;11.52;93.42;98777.19;5033423;28;20029;-62
2023/02/26 05:29:33;;;;;;;17.88;5.88;;;;;;;11.69;93.34;98791.00;5032933;28;20063;-64
2023/02/26 05:31:59;;;;;;;17.33;6.60;;;;;;;11.75;93.09;98790.22;5032567;28;20052;-66
2023/02/26 05:34:24;;;;;;;18.35;6.57;;;;;;;11.77;92.80;98790.88;5033481;28;20025;-62
2023/02/26 05:36:50;;;;;;;13.02;6.75;;;;;;;11.75;92.58;98784.91;5033238;28;20421;-64
2023/02/26 05:39:15;;;;;;;13.45;6.47;;;;;;;11.59;93.55;98777.25;5033618;28;20037;-64
2023/02/26 05:41:40;;;;;;;17.23;6.18;;;;;;;11.72;93.51;98781.81;5034187;28;20052;-65
2023/02/26 05:44:07;;;;;;;17.17;7.30;;;;;;;11.81;92.80;98778.06;5033123;28;20040;-62
2023/02/26 05:46:32;;;;;;;15.65;5.88;;;;;;;11.86;93.29;98786.25;5032751;28;20025;-64
2023/02/26 05:48:58;;;;;;;13.63;5.53;;;;;;;11.95;92.86;98794.88;5033701;28;20388;-63
2023/02/26 05:51:23;;;;;;;20.08;6.78;;;;;;;12.09;92.06;98794.78;5032827;28;20377;-66
2023/02/26 05:53:49;;;;;;;10.93;5.97;;;;;;;12.15;91.57;98801.94;5034471;28;20323;-64
2023/02/26 05:56:14;;;;;;;16.17;5.85;;;;;;;12.28;91.11;98809.16;5034105;28;20104;-63
2023/02/26 05:58:40;;;;;;;18.58;5.78;;;;;;;12.46;90.37;98817.44;5033307;28;20041;-63
2023/02/26 06:01:05;;;;;;;13.25;5.55;;;;;;;12.60;90.56;98817.53;5032218;28;20033;-62
2023/02/26 06:03:31;;;;;;;11.27;5.65;;;;;;;12.49;87.43;98813.59;5032851;28;20044;-65
2023/02/26 06:05:56;;;;;;;11.40;5.25;;;;;;;12.54;86.93;98820.97;5033644;28;20033;-64
2023/02/26 06:08:22;;;;;;;15.32;6.20;;;;;;;12.67;87.34;98834.31;5033768;28;20033;-64
2023/02/26 06:10:49;;;;;;;27.40;9.95;;;;;;;12.63;87.43;98828.56;5032793;28;20033;-64
2023/02/26 06:13:14;;;;;;;21.02;9.55;;;;;;;12.72;85.90;98829.22;5033603;28;20037;-63
2023/02/26 06:15:40;;;;;;;25.90;10.18;;;;;;;12.87;85.54;98835.22;5034537;28;20377;-63
2023/02/26 06:18:05;;;;;;;17.45;8.85;;;;;;;13.14;82.29;98827.31;5033812;28;20056;-61
2023/02/26 06:20:31;;;;;;;15.02;6.80;;;;;;;13.22;81.93;98828.00;5033851;28;20037;-61
2023/02/26 06:22:56;;;;;;;15.40;8.02;;;;;;;13.35;82.92;98843.16;5032070;28;20044;-64
2023/02/26 06:25:22;;;;;;;13.57;6.78;;;;;;;13.55;77.41;98836.03;5033532;28;20044;-64
2023/02/26 06:27:47;;;;;;;18.85;8.55;;;;;;;13.77;77.73;98819.91;5033080;28;20575;-62
2023/02/26 06:30:12;;;;;;;17.20;9.25;;;;;;;13.88;76.70;98840.56;5032797;28;20047;-65
2023/02/26 06:32:38;;;;;;;23.20;9.45;;;;;;;14.09;77.15;98847.50;5031519;28;20052;-63
2023/02/26 06:35:05;;;;;;;11.63;5.28;;;;;;;14.09;73.41;98842.19;5032768;28;20041;-62
2023/02/26 06:37:30;;;;;;;11.95;5.43;;;;;;;14.18;73.52;98846.28;5033396;28;20041;-63
2023/02/26 06:39:56;;;;;;;14.02;6.05;;;;;;;14.22;72.88;98845.66;5031958;28;20084;-65
2023/02/26 06:42:21;;;;;;;16.80;8.02;;;;;;;14.25;74.12;98841.75;5033319;28;20406;-63
2023/02/26 06:44:47;;;;;;;21.50;7.63;;;;;;;14.27;74.36;98837.03;5032667;28;20079;-63
2023/02/26 06:47:12;;;;;;;17.48;7.78;;;;;;;14.17;74.59;98840.13;5028570;28;20038;-62
2023/02/26 06:49:38;;;;;;;19.23;8.52;;;;;;;14.21;73.37;98830.69;5033103;28;20064;-63
2023/02/26 06:52:04;;;;;;;16.13;6.32;;;;;;;14.37;69.20;98835.59;5030562;28;20049;-60
2023/02/26 06:54:29;;;;;;;16.48;6.22;;;;;;;14.55;68.58;98829.63;5033623;28;20037;-63
2023/02/26 06:56:59;;;;;;;14.52;6.80;;;;;;;14.57;70.84;98837.44;5032199;28;20034;-61
2023/02/26 06:59:24;;;;;;;15.02;6.25;;;;;;;14.56;70.58;98833.94;5031313;28;20369;-61
2023/02/26 07:01:50;;;;;;;16.10;5.85;;;;;;;14.68;67.95;98840.28;5029914;28;20180;-60
2023/02/26 07:04:15;;;;;;;23.83;9.40;;;;;;;14.80;69.32;98840.44;5032954;28;20030;-65
2023/02/26 07:06:41;;;;;;;21.52;9.68;;;;;;;15.04;68.24;98844.22;5031242;28;20358;-63
2023/02/26 07:09:06;;;;;;;24.75;11.00;;;;;;;15.23;68.04;98832.63;5032649;28;20246;-64
2023/02/26 07:11:32;;;;;;;30.90;11.48;;;;;;;15.39;67.71;98841.97;5032907;28;20044;-64
2023/02/26 07:13:57;;;;;;;26.73;12.07;;;;;;;15.47;68.36;98843.56;5031786;28;20113;-62
2023/02/26 07:16:23;;;;;;;37.00;12.10;;;;;;;15.59;66.32;98860.56;5032463;28;20026;-61
2023/02/26 07:18:48;;;;;;;21.27;9.57;;;;;;;15.74;65.49;98847.75;5030448;28;20160;-63
2023/02/26 07:21:13;;;;;;;26.45;10.55;;;;;;;15.71;66.77;98852.69;5032483;28;20047;-64
2023/02/26 07:23:39;;;;;;;24.88;9.43;;;;;;;15.71;66.32;98850.03;5031846;28;20354;-61
2023/02/26 07:26:04;;;;;;;31.08;10.07;;;;;;;15.73;64.17;98853.31;5035973;28;20090;-63
2023/02/26 07:28:30;;;;;;;23.67;11.52;;;;;;;15.82;65.12;98852.81;5034789;28;20029;-63
2023/02/26 07:30:56;;;;;;;20.75;10.40;;;;;;;15.95;65.21;98857.22;5035100;28;20049;-61
2023/02/26 07:33:22;;;;;;;26.95;13.35;;;;;;;16.00;65.20;98857.38;5035561;28;20053;-64
2023/02/26 07:35:47;;;;;;;27.65;15.70;;;;;;;16.18;63.17;98865.44;5035776;28;20250;-65
2023/02/26 07:38:13;;;;;;;27.25;11.65;;;;;;;16.27;60.57;98863.31;5035015;28;20097;-65
2023/02/26 07:40:38;;;;;;;20.40;8.23;;;;;;;16.34;60.36;98852.56;5035302;28;20512;-65
2023/02/26 07:43:04;;;;;;;17.08;5.93;;;;;;;16.59;59.75;98853.31;5035648;28;20336;-64
2023/02/26 07:45:29;;;;;;;16.27;5.65;;;;;;;16.92;58.22;98847.66;5036006;28;20104;-65
2023/02/26 07:47:55;;;;;;;11.75;5.35;;;;;;;17.17;57.22;98853.69;5035703;28;20391;-64
2023/02/26 07:50:20;;;;;;;15.77;5.47;;;;;;;17.28;57.14;98845.94;5034765;28;20204;-62
2023/02/26 07:52:46;;;;;;;13.15;5.97;;;;;;;17.38;56.41;98825.63;5035255;28;20132;-63
2023/02/26 07:55:12;;;;;;;11.82;5.65;;;;;;;17.45;56.67;98822.84;5034693;28;20071;-62
2023/02/26 07:57:38;;;;;;;16.88;5.20;;;;;;;17.58;55.03;98828.00;5035374;28;20041;-66
2023/02/26 08:00:05;;;;;;;12.68;5.47;;;;;;;17.76;54.54;98817.28;5035662;28;20037;-62
2023/02/26 08:02:30;;;;;;;16.52;4.25;;;;;;;17.90;53.19;98809.84;5034708;28;20029;-63
2023/02/26 08:04:56;;;;;;;13.55;4.07;;;;;;;17.96;51.64;98800.88;5034829;28;20052;-65
2023/02/26 08:07:21;;;;;;;22.00;5.95;;;;;;;18.04;49.58;98813.09;5035137;28;20045;-65
2023/02/26 08:09:47;;;;;;;19.95;5.93;;;;;;;18.09;48.28;98813.22;5035028;28;20041;-63
2023/02/26 08:12:12;;;;;;;11.95;4.70;;;;;;;18.12;47.12;98812.75;5033007;28;20063;-65
2023/02/26 08:14:40;;;;;;;14.73;5.05;;;;;;;18.13;47.24;98809.84;5034633;28;20038;-60
2023/02/26 08:17:07;;;;;;;11.25;4.97;;;;;;;18.17;47.37;98805.66;5035901;28;20388;-65
2023/02/26 08:19:33;;;;;;;14.60;5.03;;;;;;;18.23;47.52;98819.97;5037453;28;20043;-63
2023/02/26 08:21:58;;;;;;;14.10;4.97;;;;;;;18.31;47.85;98813.44;5035157;28;20105;-63
2023/02/26 08:24:24;;;;;;;16.15;5.97;;;;;;;18.40;46.59;98820.06;5035218;28;20037;-60
2023/02/26 08:26:49;;;;;;;10.82;4.70;;;;;;;18.49;46.60;98826.69;5034141;28;20037;-61
2023/02/26 08:29:15;;;;;;;12.50;4.20;;;;;;;18.52;46.21;98820.88;5034604;28;20037;-60
2023/02/26 08:31:40;;;;;;;12.18;4.82;;;;;;;18.63;45.56;98813.88;5034966;28;20392;-63
2023/02/26 08:34:06;;;;;;;12.25;5.25;;;;;;;18.74;44.01;98821.94;5034315;28;20031;-61
2023/02/26 08:36:31;;;;;;;12.77;4.07;;;;;;;18.86;44.17;98821.09;5033553;28;20287;-62
2023/02/26 08:38:57;;;;;;;15.43;4.45;;;;;;;18.96;43.24;98807.88;5034257;28;20065;-64
2023/02/26 08:41:23;;;;;;;8.65;4.25;;;;;;;18.99;42.79;98808.22;5033702;28;20025;-61
2023/02/26 08:43:49;;;;;;;15.27;5.25;;;;;;;19.08;42.81;98792.53;5034825;28;20150;-63
2023/02/26 08:46:14;;;;;;;11.55;4.10;;;;;;;19.05;42.48;98804.56;5034274;28;20025;-60
2023/02/26 08:48:40;;;;;;;14.43;5.15;;;;;;;19.03;41.92;98803.19;5033869;28;20044;-63
2023/02/26 08:51:05;;;;;;;14.95;5.90;;;;;;;19.07;42.59;98804.34;5033162;28;20041;-63
2023/02/26 08:53:31;;;;;;;16.85;6.03;;;;;;;19.13;42.00;98798.00;5033667;28;20061;-61
2023/02/26 08:55:56;;;;;;;17.75;5.20;;;;;;;19.18;42.19;98800.78;5033651;28;20048;-61
2023/02/26 08:58:21;;;;;;;15.13;5.13;;;;;;;19.25;41.71;98803.31;5032486;28;20038;-63
2023/02/26 09:00:47;;;;;;;7.93;4.20;;;;;;;19.30;41.27;98798.03;5033517;28;20044;-61
2023/02/26 09:03:13;;;;;;;13.95;4.45;;;;;;;19.43;40.53;98793.19;5029200;28;20071;-63
2023/02/26 09:05:39;;;;;;;16.10;4.47;;;;;;;19.53;39.47;98792.56;5034179;28;20037;-66
2023/02/26 09:08:05;;;;;;;12.35;4.07;;;;;;;19.62;38.90;98798.34;5033250;28;20040;-61
2023/02/26 09:10:31;;;;;;;16.77;4.80;;;;;;;19.71;38.43;98791.53;5032991;28;20069;-63
2023/02/26 09:12:56;;;;;;;14.60;4.30;;;;;;;19.83;38.21;98811.09;5033156;28;20041;-63
2023/02/26 09:15:22;;;;;;;14.60;6.40;;;;;;;19.93;38.58;98813.13;5029829;28;20230;-63
2023/02/26 09:17:47;;;;;;;11.02;4.22;;;;;;;20.04;38.77;98823.78;5032778;28;20355;-61
2023/02/26 09:20:14;;;;;;;17.92;5.03;;;;;;;20.09;37.84;98823.84;5033286;28;20266;-63
2023/02/26 09:22:40;;;;;;;11.98;4.13;;;;;;;20.21;37.91;98823.75;5033613;28;20052;-61
2023/02/26 09:25:06;;;;;;;16.45;4.57;;;;;;;20.34;36.64;98818.03;5034017;28;20025;-63
2023/02/26 09:27:32;;;;;;;14.27;4.15;;;;;;;20.42;36.74;98826.75;5033691;28;20037;-64
2023/02/26 09:29:57;;;;;;;22.15;5.63;;;;;;;20.58;36.33;98818.66;5033397;28;20258;-63
2023/02/26 09:32:25;;;;;;;20.35;4.72;;;;;;;20.64;35.51;98804.19;5034127;28;20045;-64
2023/02/26 09:34:50;;;;;;;15.20;4.82;;;;;;;20.64;35.55;98812.28;5033073;28;20044;-63
2023/02/26 09:37:15;;;;;;;11.15;4.40;;;;;;;20.61;35.38;98806.56;5031928;28;20048;-64
2023/02/26 09:39:41;;;;;;;16.55;5.10;;;;;;;20.64;35.21;98801.50;5031976;28;20037;-64
2023/02/26 09:42:21;;;;;;;18.50;4.88;;;;;;;20.69;35.32;98803.44;5033138;28;20395;-61
2023/02/26 09:44:48;;;;;;;23.02;4.75;;;;;;;20.60;34.99;98802.25;5032593;28;20105;-61
2023/02/26 09:47:28;;;;;;;18.20;5.00;;;;;;;20.64;35.08;98785.38;5031834;28;20038;-63
2023/02/26 09:50:24;;;;;;;15.38;4.28;;;;;;;20.65;34.67;98781.63;5031715;28;20036;-61
2023/02/26 09:52:59;;;;;;;15.48;4.70;;;;;;;20.56;35.05;98790.38;5033225;28;20056;-63
2023/02/26 09:55:38;;;;;;;18.17;4.82;;;;;;;20.47;34.53;98783.81;5033246;28;20295;-63
2023/02/26 09:58:10;;;;;;;17.15;4.85;;;;;;;20.50;34.90;98781.44;5030316;28;20037;-63
2023/02/26 10:01:14;;;;;;;12.27;4.10;;;;;;;20.59;35.42;98777.25;5032512;28;20219;-63
2023/02/26 10:04:14;;;;;;;17.75;5.75;;;;;;;20.70;34.60;98772.78;5030884;28;20041;-61
2023/02/26 10:06:45;;;;;;;15.63;3.78;;;;;;;20.68;33.61;98762.28;5030016;28;20239;-64
2023/02/26 10:09:26;;;;;;;15.75;4.30;;;;;;;20.65;34.35;98772.75;5032461;28;20262;-64
2023/02/26 10:12:09;;;;;;;25.67;5.53;;;;;;;20.70;35.14;98773.59;5031971;28;20102;-61
2023/02/26 10:14:39;;;;;;;20.67;4.50;;;;;;;20.67;33.75;98781.38;5032036;28;20033;-61
2023/02/26 10:17:39;;;;;;;11.07;4.35;;;;;;;20.67;34.56;98782.19;5032945;28;20047;-61
2023/02/26 10:20:19;;;;;;;19.73;4.63;;;;;;;20.67;35.05;98782.19;5031955;28;20163;-64
2023/02/26 10:22:55;;;;;;;11.95;4.00;;;;;;;20.57;34.33;98779.38;5032505;28;20201;-61
2023/02/26 10:25:23;;;;;;;12.20;3.90;;;;;;;20.56;34.93;98766.97;5032100;28;20041;-63
2023/02/26 10:28:04;;;;;;;13.32;3.85;;;;;;;20.58;34.23;98764.84;5032995;28;20360;-61
2023/02/26 10:30:57;;;;;;;11.75;3.58;;;;;;;20.56;33.86;98766.16;5033094;28;20207;-63
2023/02/26 10:33:39;;;;;;;12.27;3.45;;;;;;;20.64;34.43;98769.22;5032602;28;20048;-64
2023/02/26 10:36:17;;;;;;;13.77;4.13;;;;;;;20.70;33.94;98759.34;5032542;28;20034;-62
2023/02/26 10:38:47;;;;;;;11.82;3.40;;;;;;;20.71;33.30;98769.03;5033875;28;20038;-61
2023/02/26 10:41:17;;;;;;;9.40;3.42;;;;;;;20.72;33.87;98768.78;5032283;28;20072;-62
2023/02/26 10:43:48;;;;;;;10.98;3.83;;;;;;;20.72;33.62;98779.56;5032077;28;20037;-62
2023/02/26 10:46:17;;;;;;;18.10;3.75;;;;;;;20.78;34.45;98758.91;5035631;28;20037;-63
2023/02/26 10:49:03;;;;;;;10.10;4.07;;;;;;;20.82;33.81;98749.28;5037096;28;20053;-64
2023/02/26 10:51:37;;;;;;;9.35;4.00;;;;;;;20.75;33.29;98755.91;5037817;28;20045;-64
2023/02/26 10:54:12;;;;;;;15.13;5.53;;;;;;;20.67;34.89;98757.97;5037356;28;20172;-63
2023/02/26 10:56:37;;;;;;;12.10;4.25;;;;;;;20.75;34.52;98753.22;5037416;28;20238;-63
2023/02/26 10:59:02;;;;;;;14.93;4.20;;;;;;;20.78;34.43;98750.81;5040578;28;20060;-64
2023/02/26 11:01:30;;;;;;;14.52;4.65;;;;;;;20.70;34.41;98751.28;5041856;28;20054;-64
2023/02/26 11:04:00;;;;;;;11.73;4.15;;;;;;;20.57;34.99;98749.78;5041274;28;20080;-60
2023/02/26 11:06:44;;;;;;;9.90;3.72;;;;;;;20.61;34.37;98750.09;5031593;28;20037;-61
2023/02/26 11:09:21;;;;;;;11.73;4.20;;;;;;;20.57;35.23;98752.47;5041492;28;20033;-61
2023/02/26 11:12:05;;;;;;;13.45;4.15;;;;;;;20.50;34.74;98751.03;5041879;28;20045;-63
2023/02/26 11:14:32;;;;;;;10.15;3.90;;;;;;;20.46;35.27;98756.09;5040067;28;20052;-64
2023/02/26 11:17:03;;;;;;;8.95;3.45;;;;;;;20.39;34.97;98750.91;5040427;28;20087;-61
2023/02/26 11:19:43;;;;;;;11.75;4.00;;;;;;;20.35;34.61;98755.13;5041602;28;20041;-61
2023/02/26 11:22:13;;;;;;;11.55;4.40;;;;;;;20.27;35.03;98754.75;5040372;28;20100;-61
2023/02/26 11:24:45;;;;;;;11.68;4.22;;;;;;;20.35;35.75;98751.63;5040563;28;20041;-61
2023/02/26 11:27:24;;;;;;;8.90;3.95;;;;;;;20.26;35.44;98740.50;5040098;28;20037;-61
2023/02/26 11:29:56;;;;;;;13.65;4.22;;;;;;;20.10;35.93;98725.22;5041650;28;20449;-63
2023/02/26 11:32:33;;;;;;;11.27;4.35;;;;;;;20.16;35.76;98734.16;5040658;28;20069;-62
2023/02/26 11:34:59;;;;;;;10.20;3.88;;;;;;;20.17;35.94;98728.53;5040009;28;20049;-64
2023/02/26 11:37:36;;;;;;;13.52;5.47;;;;;;;20.44;36.00;98734.03;5038261;28;20425;-61
2023/02/26 11:40:31;;;;;;;9.52;3.20;;;;;;;20.55;34.75;98729.59;5035564;28;20044;-63